KBAB/BAB METAR and TAF weather

Enter ICAO airport designator
Station Type Date Time Source
KBAB METAR 2020/07/07 23:58 UTC NOAA

KBAB 072358Z AUTO 29005KT 10SM CLR 32/10 A2983 RMK AO2 SLP104 T03160097 10319 20245 57020 $


Station Type Date Time Source
KBAB Decoded METAR 2020/07/07 23:58 UTC NOAA

Marysville, Beale Air Force Base, CA, United States (KBAB) 39-08N 121-26W
Jul 07, 2020 - 07:58 PM EDT / 2020.07.07 2358 UTC
Wind: from the WNW (290 degrees) at 6 MPH (5 KT):0
Visibility: 10 mile(s):0
Sky conditions: clear
Temperature: 88.9 F (31.6 C)
Dew Point: 49.5 F (9.7 C)
Relative Humidity: 25%
Pressure (altimeter): 29.83 in. Hg (1010 hPa)
Pressure tendency: 0.06 inches (2.0 hPa) lower than three hours ago
ob: KBAB 072358Z AUTO 29005KT 10SM CLR 32/10 A2983 RMK AO2 SLP104 T03160097 10319 20245 57020
cycle: 0

Station Type Date Time Source
KBAB TAF 2020/07/07 19:03 UTC NOAA

TAF TAF KBAB 071900Z 0719/0901 25009KT 9999 FEW200 QNH2980INS
BECMG 0803/0804 VRB06KT 9999 FEW200 QNH2980INS
BECMG 0816/0817 21009KT 9999 SKC QNH2973INS TX35/0723Z TN14/0813Z

Example: see airport list